Time;durP1;ratioP1;P1;durP2;ratioP2;P2;SDS_P1;SDS_P2;PMS_P1;PMS_P2;Temp;Humidity;BMP_temperature;BMP_pressure;BME280_temperature;BME280_humidity;BME280_pressure;Samples;Min_cycle;Max_cycle;Signal;HPM_P1;HPM_P2
2022/11/23 00:00:58;;;;;;;57.53;29.40;;;;;;;;;;770270;180;926951;-61
2022/11/23 00:03:24;;;;;;;44.53;28.43;;;;;;;;;;778031;181;919133;-65
2022/11/23 00:05:50;;;;;;;53.37;28.97;;;;;;;;;;772427;181;921214;-64
2022/11/23 00:08:15;;;;;;;50.93;29.50;;;;;;;;;;773218;180;918756;-61
2022/11/23 00:10:41;;;;;;;47.57;29.70;;;;;;;;;;768256;180;919096;-65
2022/11/23 00:13:07;;;;;;;43.75;27.85;;;;;;;;;;778367;180;919076;-61
2022/11/23 00:15:34;;;;;;;48.63;31.63;;;;;;;;;;757072;183;919443;-64
2022/11/23 00:17:59;;;;;;;55.00;28.30;;;;;;;;;;766342;180;919393;-65
2022/11/23 00:20:25;;;;;;;53.40;29.12;;;;;;;;;;776522;180;921153;-61
2022/11/23 00:22:51;;;;;;;42.60;28.93;;;;;;;;;;763657;180;922144;-61
2022/11/23 00:25:16;;;;;;;54.60;31.50;;;;;;;;;;768959;182;918897;-64
2022/11/23 00:27:43;;;;;;;53.13;30.57;;;;;;;;;;772406;179;918595;-65
2022/11/23 00:30:09;;;;;;;53.97;31.13;;;;;;;;;;773688;180;923514;-61
2022/11/23 00:32:35;;;;;;;48.97;29.63;;;;;;;;;;766627;179;918367;-65
2022/11/23 00:35:01;;;;;;;54.03;28.30;;;;;;;;;;757113;185;919010;-64
2022/11/23 00:37:27;;;;;;;49.63;29.50;;;;;;;;;;771290;182;920935;-61
2022/11/23 00:39:53;;;;;;;48.80;28.83;;;;;;;;;;761818;181;919130;-61
2022/11/23 00:42:19;;;;;;;48.80;28.50;;;;;;;;;;766369;179;1020607;-61
2022/11/23 00:44:45;;;;;;;48.97;30.07;;;;;;;;;;765013;181;817808;-65
2022/11/23 00:47:11;;;;;;;52.17;29.97;;;;;;;;;;752556;184;919279;-64
2022/11/23 00:49:37;;;;;;;52.97;30.48;;;;;;;;;;760916;182;1018234;-61
2022/11/23 00:52:03;;;;;;;51.40;29.30;;;;;;;;;;775068;181;919049;-61
2022/11/23 00:54:29;;;;;;;51.33;31.07;;;;;;;;;;767389;181;918401;-63
2022/11/23 00:56:55;;;;;;;47.43;28.63;;;;;;;;;;759305;180;918685;-64
2022/11/23 00:59:20;;;;;;;55.83;32.83;;;;;;;;;;766520;180;919366;-61
2022/11/23 01:01:46;;;;;;;49.33;30.83;;;;;;;;;;769706;180;825522;-61
2022/11/23 01:04:12;;;;;;;45.83;28.67;;;;;;;;;;770622;180;843376;-63
2022/11/23 01:06:38;;;;;;;47.47;29.00;;;;;;;;;;763111;181;913018;-61
2022/11/23 01:09:04;;;;;;;54.70;30.97;;;;;;;;;;775882;182;913591;-60
2022/11/23 01:11:30;;;;;;;44.23;28.77;;;;;;;;;;768911;181;911492;-61
2022/11/23 01:13:56;;;;;;;50.43;30.10;;;;;;;;;;767055;182;864281;-66
2022/11/23 01:16:21;;;;;;;51.27;30.80;;;;;;;;;;769873;180;919180;-61
2022/11/23 01:18:47;;;;;;;50.00;27.97;;;;;;;;;;764935;183;919321;-64
2022/11/23 01:21:13;;;;;;;46.63;30.52;;;;;;;;;;764189;183;904318;-65
2022/11/23 01:23:39;;;;;;;52.57;29.70;;;;;;;;;;769117;183;919397;-64
2022/11/23 01:26:06;;;;;;;52.43;30.40;;;;;;;;;;768505;180;919595;-64
2022/11/23 01:28:31;;;;;;;47.10;27.90;;;;;;;;;;763806;182;920039;-61
2022/11/23 01:31:03;;;;;;;46.25;29.42;;;;;;;;;;766515;181;918682;-64
2022/11/23 01:33:29;;;;;;;54.43;28.80;;;;;;;;;;777515;180;918797;-61
2022/11/23 01:35:55;;;;;;;44.83;28.27;;;;;;;;;;771099;180;918998;-61
2022/11/23 01:38:21;;;;;;;48.47;27.07;;;;;;;;;;751460;184;920505;-60
2022/11/23 01:40:46;;;;;;;43.47;26.07;;;;;;;;;;771297;182;922477;-64
2022/11/23 01:43:12;;;;;;;45.47;27.17;;;;;;;;;;766825;181;919294;-66
2022/11/23 01:45:38;;;;;;;44.43;26.77;;;;;;;;;;770783;180;823224;-63
2022/11/23 01:48:04;;;;;;;48.13;27.00;;;;;;;;;;771860;180;919425;-63
2022/11/23 01:50:30;;;;;;;51.53;29.00;;;;;;;;;;778943;180;899446;-60
2022/11/23 01:52:56;;;;;;;47.33;27.03;;;;;;;;;;775047;180;917882;-61
2022/11/23 01:55:22;;;;;;;48.77;27.00;;;;;;;;;;773472;180;919114;-64
2022/11/23 01:57:48;;;;;;;47.67;28.90;;;;;;;;;;778235;180;917754;-65
2022/11/23 02:00:14;;;;;;;50.37;28.30;;;;;;;;;;773312;180;820824;-65
2022/11/23 02:02:40;;;;;;;48.33;28.93;;;;;;;;;;767632;181;919128;-65
2022/11/23 02:05:06;;;;;;;52.20;30.90;;;;;;;;;;771625;181;916494;-65
2022/11/23 02:07:32;;;;;;;47.20;26.77;;;;;;;;;;770677;179;919008;-64
2022/11/23 02:09:57;;;;;;;51.57;28.60;;;;;;;;;;766576;179;919671;-60
2022/11/23 02:12:23;;;;;;;54.07;30.73;;;;;;;;;;762046;183;919353;-64
2022/11/23 02:14:49;;;;;;;52.00;29.67;;;;;;;;;;756013;186;919016;-64
2022/11/23 02:17:15;;;;;;;50.67;30.50;;;;;;;;;;770418;180;918976;-65
2022/11/23 02:19:46;;;;;;;63.73;35.07;;;;;;;;;;768629;180;923501;-61
2022/11/23 02:22:12;;;;;;;74.30;40.37;;;;;;;;;;769932;180;836614;-64
2022/11/23 02:24:38;;;;;;;68.97;38.30;;;;;;;;;;763153;181;918837;-61
2022/11/23 02:27:05;;;;;;;58.30;33.17;;;;;;;;;;765820;182;919493;-61
2022/11/23 02:29:29;;;;;;;56.87;32.87;;;;;;;;;;766211;182;877346;-61
2022/11/23 02:31:55;;;;;;;62.23;34.33;;;;;;;;;;762823;183;918676;-65
2022/11/23 02:34:22;;;;;;;67.63;38.00;;;;;;;;;;771620;180;919825;-65
2022/11/23 02:36:48;;;;;;;70.32;36.25;;;;;;;;;;765834;180;909587;-61
2022/11/23 02:39:16;;;;;;;64.30;36.57;;;;;;;;;;775652;180;919476;-64
2022/11/23 02:41:43;;;;;;;71.90;38.40;;;;;;;;;;764032;181;918364;-61
2022/11/23 02:44:25;;;;;;;56.90;33.00;;;;;;;;;;767947;180;918633;-61
2022/11/23 02:46:51;;;;;;;59.43;36.60;;;;;;;;;;768217;180;920515;-61
2022/11/23 02:49:17;;;;;;;64.87;36.53;;;;;;;;;;772092;180;916524;-61
2022/11/23 02:51:43;;;;;;;55.70;33.80;;;;;;;;;;765911;180;916120;-64
2022/11/23 02:54:09;;;;;;;54.83;32.67;;;;;;;;;;765558;180;919135;-65
2022/11/23 02:56:35;;;;;;;64.60;36.93;;;;;;;;;;758994;182;918240;-65
2022/11/23 02:59:00;;;;;;;59.07;34.90;;;;;;;;;;772313;180;919140;-65
2022/11/23 03:01:26;;;;;;;67.93;37.63;;;;;;;;;;767787;180;919165;-64
2022/11/23 03:03:52;;;;;;;65.33;38.13;;;;;;;;;;768042;181;918820;-61
2022/11/23 03:06:18;;;;;;;69.10;36.30;;;;;;;;;;772640;181;819278;-61
2022/11/23 03:08:44;;;;;;;65.97;38.77;;;;;;;;;;769433;180;919381;-61
2022/11/23 03:11:10;;;;;;;70.63;39.23;;;;;;;;;;769460;180;816620;-64
2022/11/23 03:13:36;;;;;;;71.03;39.57;;;;;;;;;;768765;182;815710;-60
2022/11/23 03:16:01;;;;;;;57.90;37.73;;;;;;;;;;771038;181;918863;-61
2022/11/23 03:18:27;;;;;;;60.23;36.90;;;;;;;;;;774783;180;816438;-61
2022/11/23 03:20:53;;;;;;;70.77;39.93;;;;;;;;;;763585;182;917335;-61
2022/11/23 03:23:19;;;;;;;75.37;40.23;;;;;;;;;;762839;183;930362;-61
2022/11/23 03:25:45;;;;;;;76.27;39.60;;;;;;;;;;760309;182;627223;-61
2022/11/23 03:28:11;;;;;;;64.50;39.97;;;;;;;;;;770286;181;619459;-61
2022/11/23 03:30:36;;;;;;;73.30;41.00;;;;;;;;;;777798;180;619629;-61
2022/11/23 03:33:02;;;;;;;80.60;42.20;;;;;;;;;;767735;180;919682;-60
2022/11/23 03:35:28;;;;;;;84.00;40.67;;;;;;;;;;769065;181;918060;-61
2022/11/23 03:37:54;;;;;;;69.00;38.80;;;;;;;;;;773284;180;919003;-61
2022/11/23 03:40:20;;;;;;;68.97;37.60;;;;;;;;;;772237;181;919155;-61
2022/11/23 03:42:46;;;;;;;81.07;43.03;;;;;;;;;;773201;180;916773;-64
2022/11/23 03:45:11;;;;;;;69.33;39.50;;;;;;;;;;767574;179;817896;-61
2022/11/23 03:47:37;;;;;;;73.80;41.67;;;;;;;;;;766114;180;818173;-61
2022/11/23 03:50:03;;;;;;;81.10;42.00;;;;;;;;;;771465;180;931172;-61
2022/11/23 03:52:29;;;;;;;83.97;42.67;;;;;;;;;;773952;180;918594;-61
2022/11/23 03:54:55;;;;;;;70.57;40.60;;;;;;;;;;779835;180;816478;-61
2022/11/23 03:57:21;;;;;;;62.03;36.50;;;;;;;;;;771637;180;918889;-61
2022/11/23 03:59:47;;;;;;;78.33;38.03;;;;;;;;;;769294;181;918991;-61
2022/11/23 04:02:13;;;;;;;79.67;41.23;;;;;;;;;;775085;180;919234;-65
2022/11/23 04:04:38;;;;;;;61.20;37.80;;;;;;;;;;761913;181;918919;-67
2022/11/23 04:07:04;;;;;;;69.60;42.00;;;;;;;;;;763348;181;919357;-64
2022/11/23 04:09:31;;;;;;;75.03;41.30;;;;;;;;;;768277;182;814658;-64
2022/11/23 04:11:57;;;;;;;68.87;41.07;;;;;;;;;;766338;180;885222;-64
2022/11/23 04:14:22;;;;;;;72.83;37.50;;;;;;;;;;769962;178;919110;-64
2022/11/23 04:16:48;;;;;;;78.30;44.13;;;;;;;;;;752599;185;1021564;-61
2022/11/23 04:19:14;;;;;;;86.63;48.47;;;;;;;;;;767040;182;920149;-61
2022/11/23 04:21:40;;;;;;;86.77;48.70;;;;;;;;;;765585;182;918435;-64
2022/11/23 04:24:06;;;;;;;78.53;45.20;;;;;;;;;;768798;180;921964;-61
2022/11/23 04:26:32;;;;;;;87.17;45.70;;;;;;;;;;777245;180;821759;-65
2022/11/23 04:28:58;;;;;;;82.37;44.30;;;;;;;;;;772034;180;922304;-61
2022/11/23 04:31:23;;;;;;;93.90;51.40;;;;;;;;;;771170;180;818740;-65
2022/11/23 04:33:49;;;;;;;96.70;47.30;;;;;;;;;;776684;180;817963;-61
2022/11/23 04:36:15;;;;;;;97.63;59.13;;;;;;;;;;769702;180;918070;-64
2022/11/23 04:38:41;;;;;;;101.87;52.40;;;;;;;;;;770453;180;938692;-63
2022/11/23 04:41:07;;;;;;;92.93;52.40;;;;;;;;;;769473;181;916037;-61
2022/11/23 04:43:33;;;;;;;104.73;51.40;;;;;;;;;;777059;179;920053;-64
2022/11/23 04:45:58;;;;;;;103.90;57.63;;;;;;;;;;767000;180;915394;-63
2022/11/23 04:48:24;;;;;;;102.70;53.27;;;;;;;;;;771492;180;816905;-64
2022/11/23 04:50:50;;;;;;;105.70;52.87;;;;;;;;;;772710;180;918210;-65
2022/11/23 04:53:16;;;;;;;102.43;54.53;;;;;;;;;;762596;183;855953;-62
2022/11/23 04:55:42;;;;;;;114.18;53.42;;;;;;;;;;768181;180;919547;-61
2022/11/23 04:58:08;;;;;;;108.10;53.90;;;;;;;;;;773640;181;904863;-65
2022/11/23 05:00:34;;;;;;;91.47;51.50;;;;;;;;;;770290;180;918037;-64
2022/11/23 05:02:59;;;;;;;114.83;57.50;;;;;;;;;;769739;180;913841;-63
2022/11/23 05:05:25;;;;;;;118.27;56.47;;;;;;;;;;770496;179;639841;-65
2022/11/23 05:07:51;;;;;;;107.63;52.80;;;;;;;;;;766053;180;919498;-65
2022/11/23 05:10:17;;;;;;;111.73;55.10;;;;;;;;;;764792;180;914805;-65
2022/11/23 05:12:44;;;;;;;104.40;55.37;;;;;;;;;;767230;180;918232;-61
2022/11/23 05:15:10;;;;;;;113.67;56.40;;;;;;;;;;774129;181;919069;-61
2022/11/23 05:17:36;;;;;;;107.28;56.80;;;;;;;;;;771619;180;921137;-63
2022/11/23 05:20:02;;;;;;;112.13;59.20;;;;;;;;;;777420;180;657157;-60
2022/11/23 05:22:29;;;;;;;102.40;56.50;;;;;;;;;;776497;180;640251;-65
2022/11/23 05:24:54;;;;;;;109.60;56.73;;;;;;;;;;766429;179;822767;-65
2022/11/23 05:27:20;;;;;;;107.33;57.90;;;;;;;;;;767347;178;919268;-64
2022/11/23 05:29:46;;;;;;;99.93;52.93;;;;;;;;;;766844;181;909744;-65
2022/11/23 05:32:12;;;;;;;116.73;59.77;;;;;;;;;;762432;182;912599;-61
2022/11/23 05:34:38;;;;;;;109.03;57.37;;;;;;;;;;769715;181;910463;-65
2022/11/23 05:37:04;;;;;;;113.57;60.50;;;;;;;;;;772685;179;915458;-64
2022/11/23 05:39:29;;;;;;;141.07;71.30;;;;;;;;;;772000;179;1592354;-61
2022/11/23 05:41:55;;;;;;;130.48;69.95;;;;;;;;;;767730;181;918322;-65
2022/11/23 05:44:21;;;;;;;135.53;64.90;;;;;;;;;;770346;180;919101;-65
2022/11/23 05:46:47;;;;;;;124.50;63.63;;;;;;;;;;764386;181;916019;-65
2022/11/23 05:49:13;;;;;;;110.07;61.17;;;;;;;;;;760369;184;813427;-66
2022/11/23 05:51:39;;;;;;;120.10;59.10;;;;;;;;;;759625;181;916218;-65
2022/11/23 05:54:05;;;;;;;104.80;59.83;;;;;;;;;;776554;180;915431;-60
2022/11/23 05:56:31;;;;;;;100.60;57.53;;;;;;;;;;769497;181;917126;-63
2022/11/23 05:58:56;;;;;;;107.60;51.03;;;;;;;;;;766169;180;915101;-61
2022/11/23 06:01:22;;;;;;;102.30;55.63;;;;;;;;;;769571;180;916375;-65
2022/11/23 06:03:50;;;;;;;107.17;55.23;;;;;;;;;;749293;182;920489;-65
2022/11/23 06:06:16;;;;;;;109.22;58.60;;;;;;;;;;769086;181;919834;-65
2022/11/23 06:08:42;;;;;;;116.07;54.37;;;;;;;;;;769476;180;918759;-61
2022/11/23 06:11:07;;;;;;;101.03;54.93;;;;;;;;;;775679;181;892385;-65
2022/11/23 06:13:33;;;;;;;115.30;54.67;;;;;;;;;;766340;181;898956;-60
2022/11/23 06:15:59;;;;;;;104.07;53.37;;;;;;;;;;770325;181;816934;-60
2022/11/23 06:18:25;;;;;;;105.07;53.30;;;;;;;;;;775885;180;917372;-65
2022/11/23 06:20:51;;;;;;;108.83;57.20;;;;;;;;;;765780;181;919356;-61
2022/11/23 06:23:17;;;;;;;121.57;58.57;;;;;;;;;;754802;183;909960;-65
2022/11/23 06:25:42;;;;;;;124.33;50.97;;;;;;;;;;754220;183;915623;-61
2022/11/23 06:28:08;;;;;;;104.63;55.53;;;;;;;;;;760032;184;915458;-62
2022/11/23 06:30:34;;;;;;;138.93;64.93;;;;;;;;;;760059;180;920416;-61
2022/11/23 06:33:02;;;;;;;127.50;63.40;;;;;;;;;;768940;180;939657;-65
2022/11/23 06:35:28;;;;;;;137.87;65.43;;;;;;;;;;776062;179;904150;-65
2022/11/23 06:37:54;;;;;;;118.97;60.07;;;;;;;;;;766337;180;914337;-61
2022/11/23 06:40:20;;;;;;;130.73;63.33;;;;;;;;;;769368;180;919301;-64
2022/11/23 06:42:47;;;;;;;126.20;59.25;;;;;;;;;;779227;180;919286;-64
2022/11/23 06:45:12;;;;;;;112.87;56.27;;;;;;;;;;766960;181;905119;-64
2022/11/23 06:47:38;;;;;;;119.87;59.17;;;;;;;;;;767129;182;912116;-65
2022/11/23 06:50:04;;;;;;;119.10;63.80;;;;;;;;;;762799;182;922445;-61
2022/11/23 06:52:30;;;;;;;118.77;58.73;;;;;;;;;;769817;182;926159;-60
2022/11/23 06:54:56;;;;;;;123.87;62.33;;;;;;;;;;765507;182;912135;-61
2022/11/23 06:57:21;;;;;;;127.10;66.25;;;;;;;;;;763363;184;913168;-61
2022/11/23 06:59:47;;;;;;;134.40;68.00;;;;;;;;;;772700;180;919677;-64
2022/11/23 07:02:13;;;;;;;120.00;62.50;;;;;;;;;;769817;181;911199;-64
2022/11/23 07:04:39;;;;;;;120.20;59.70;;;;;;;;;;761523;181;812474;-64
2022/11/23 07:07:05;;;;;;;111.50;56.47;;;;;;;;;;756183;186;915093;-63
2022/11/23 07:09:31;;;;;;;111.33;56.67;;;;;;;;;;738853;184;911847;-64
2022/11/23 07:11:57;;;;;;;116.67;54.27;;;;;;;;;;751134;184;907850;-64
2022/11/23 07:14:22;;;;;;;101.53;48.20;;;;;;;;;;754518;184;915970;-61
2022/11/23 07:16:49;;;;;;;99.10;46.87;;;;;;;;;;754213;184;913986;-62
2022/11/23 07:19:15;;;;;;;125.23;55.77;;;;;;;;;;754907;182;915971;-60
2022/11/23 07:21:41;;;;;;;120.18;62.62;;;;;;;;;;768026;181;919690;-61
2022/11/23 07:24:06;;;;;;;144.40;63.13;;;;;;;;;;775396;181;919225;-64
2022/11/23 07:26:32;;;;;;;137.03;64.63;;;;;;;;;;771661;180;918467;-61
2022/11/23 07:28:58;;;;;;;131.10;54.50;;;;;;;;;;771311;180;918898;-60
2022/11/23 07:31:24;;;;;;;130.03;60.43;;;;;;;;;;764962;183;915325;-64
2022/11/23 07:33:50;;;;;;;117.97;61.47;;;;;;;;;;763014;181;917706;-64
2022/11/23 07:36:16;;;;;;;122.67;57.07;;;;;;;;;;757989;183;1020181;-64
2022/11/23 07:38:42;;;;;;;123.90;54.37;;;;;;;;;;764135;181;830193;-63
2022/11/23 07:41:07;;;;;;;118.73;60.57;;;;;;;;;;773988;181;922207;-61
2022/11/23 07:43:33;;;;;;;137.60;66.33;;;;;;;;;;764366;180;917430;-61
2022/11/23 07:45:59;;;;;;;158.53;73.20;;;;;;;;;;758211;184;919629;-62
2022/11/23 07:48:25;;;;;;;152.40;68.43;;;;;;;;;;767425;181;913410;-64
2022/11/23 07:50:51;;;;;;;282.93;126.43;;;;;;;;;;759590;181;919160;-65
2022/11/23 07:53:17;;;;;;;166.47;73.07;;;;;;;;;;761974;182;815877;-61
2022/11/23 07:55:42;;;;;;;191.40;75.07;;;;;;;;;;766122;183;817303;-61
2022/11/23 07:58:08;;;;;;;135.93;64.87;;;;;;;;;;768477;180;918974;-64
2022/11/23 08:00:34;;;;;;;163.87;82.30;;;;;;;;;;767632;179;918508;-61
2022/11/23 08:03:00;;;;;;;126.57;59.57;;;;;;;;;;777139;180;815820;-65
2022/11/23 08:05:26;;;;;;;143.30;68.80;;;;;;;;;;768279;180;920372;-65
2022/11/23 08:07:52;;;;;;;129.63;57.87;;;;;;;;;;767378;181;912440;-61
2022/11/23 08:10:18;;;;;;;131.33;58.40;;;;;;;;;;767348;181;917116;-64
2022/11/23 08:12:43;;;;;;;121.93;58.60;;;;;;;;;;777971;180;921832;-61
2022/11/23 08:15:09;;;;;;;132.53;66.90;;;;;;;;;;775810;180;918111;-63
2022/11/23 08:17:35;;;;;;;108.40;55.17;;;;;;;;;;759975;183;919152;-65
2022/11/23 08:20:01;;;;;;;116.33;56.97;;;;;;;;;;765648;184;916585;-64
2022/11/23 08:22:27;;;;;;;135.60;56.57;;;;;;;;;;768807;180;921088;-64
2022/11/23 08:24:53;;;;;;;123.77;60.47;;;;;;;;;;758651;183;919107;-65
2022/11/23 08:27:19;;;;;;;162.47;78.20;;;;;;;;;;755215;186;913282;-65
2022/11/23 08:29:45;;;;;;;144.33;72.37;;;;;;;;;;765031;181;917515;-65
2022/11/23 08:32:10;;;;;;;142.90;72.03;;;;;;;;;;771779;180;919283;-65
2022/11/23 08:34:36;;;;;;;134.13;66.50;;;;;;;;;;772647;180;918844;-61
2022/11/23 08:37:02;;;;;;;103.57;53.53;;;;;;;;;;765546;182;816143;-61
2022/11/23 08:39:28;;;;;;;110.97;59.60;;;;;;;;;;769149;180;919125;-61
2022/11/23 08:41:54;;;;;;;122.10;56.80;;;;;;;;;;757852;180;918918;-62
2022/11/23 08:44:20;;;;;;;112.07;57.90;;;;;;;;;;759116;182;918722;-64
2022/11/23 08:46:45;;;;;;;95.55;50.63;;;;;;;;;;767304;181;916498;-61
2022/11/23 08:49:11;;;;;;;107.13;55.30;;;;;;;;;;758061;184;916477;-62
2022/11/23 08:51:37;;;;;;;98.83;45.90;;;;;;;;;;759368;185;919394;-64
2022/11/23 08:54:03;;;;;;;95.33;45.67;;;;;;;;;;757314;184;916730;-65
2022/11/23 08:56:29;;;;;;;101.93;51.40;;;;;;;;;;755379;183;1021388;-65
2022/11/23 08:58:55;;;;;;;87.70;42.25;;;;;;;;;;749013;187;919465;-61
2022/11/23 09:01:21;;;;;;;113.17;52.70;;;;;;;;;;768585;180;918972;-61
2022/11/23 09:03:46;;;;;;;98.93;49.00;;;;;;;;;;763050;182;919464;-66
2022/11/23 09:06:12;;;;;;;100.53;51.17;;;;;;;;;;772679;180;918925;-62
2022/11/23 09:08:38;;;;;;;105.37;52.27;;;;;;;;;;780833;179;919207;-61
2022/11/23 09:11:04;;;;;;;116.03;53.10;;;;;;;;;;770497;180;922371;-62
2022/11/23 09:13:30;;;;;;;114.62;52.97;;;;;;;;;;763375;183;921960;-66
2022/11/23 09:15:56;;;;;;;107.73;44.53;;;;;;;;;;772443;181;820833;-65
2022/11/23 09:18:22;;;;;;;93.07;42.50;;;;;;;;;;767626;181;918985;-61
2022/11/23 09:20:48;;;;;;;113.93;53.63;;;;;;;;;;768855;181;822915;-64
2022/11/23 09:23:13;;;;;;;97.43;42.23;;;;;;;;;;777318;181;917182;-62
2022/11/23 09:25:41;;;;;;;109.50;52.30;;;;;;;;;;769476;180;919880;-61
2022/11/23 09:28:05;;;;;;;91.43;46.20;;;;;;;;;;771151;180;919585;-65
2022/11/23 09:30:31;;;;;;;96.03;48.03;;;;;;;;;;769178;180;919196;-61
2022/11/23 09:32:57;;;;;;;100.50;52.40;;;;;;;;;;769955;182;917680;-61
2022/11/23 09:35:24;;;;;;;124.20;63.67;;;;;;;;;;769408;181;919516;-61
2022/11/23 09:37:49;;;;;;;131.60;64.03;;;;;;;;;;768464;182;918186;-66
2022/11/23 09:40:16;;;;;;;139.83;65.30;;;;;;;;;;772601;180;919363;-62
2022/11/23 09:42:56;;;;;;;75.83;38.47;;;;;;;;;;771387;181;919294;-65
2022/11/23 09:45:27;;;;;;;128.23;59.93;;;;;;;;;;753132;180;920768;-65
2022/11/23 09:48:08;;;;;;;114.00;52.80;;;;;;;;;;754186;184;920542;-65
2022/11/23 09:50:51;;;;;;;91.03;47.10;;;;;;;;;;762027;180;921301;-61
2022/11/23 09:53:15;;;;;;;85.20;37.40;;;;;;;;;;763820;181;919175;-63
2022/11/23 09:55:43;;;;;;;87.60;38.87;;;;;;;;;;775483;180;920572;-62
2022/11/23 09:58:09;;;;;;;128.90;62.77;;;;;;;;;;770924;182;919472;-66
2022/11/23 10:00:36;;;;;;;116.97;51.63;;;;;;;;;;769620;181;919298;-61
2022/11/23 10:03:02;;;;;;;164.30;60.50;;;;;;;;;;769306;180;921005;-62
2022/11/23 10:05:28;;;;;;;79.57;35.57;;;;;;;;;;761526;183;818607;-66
2022/11/23 10:07:58;;;;;;;138.10;58.83;;;;;;;;;;765064;180;918514;-66
2022/11/23 10:10:43;;;;;;;98.20;45.85;;;;;;;;;;768810;180;914323;-66
2022/11/23 10:13:15;;;;;;;109.27;48.60;;;;;;;;;;770714;180;920237;-65
2022/11/23 10:15:59;;;;;;;61.00;33.93;;;;;;;;;;766913;179;913013;-62
2022/11/23 10:18:31;;;;;;;100.77;47.90;;;;;;;;;;762716;183;916640;-61
2022/11/23 10:20:59;;;;;;;116.25;47.58;;;;;;;;;;768024;180;920727;-62
2022/11/23 10:23:25;;;;;;;110.50;45.30;;;;;;;;;;769609;183;753929;-61
2022/11/23 10:25:51;;;;;;;110.33;47.13;;;;;;;;;;762995;180;919477;-65
2022/11/23 10:28:17;;;;;;;200.83;73.67;;;;;;;;;;764553;182;921409;-64
2022/11/23 10:30:43;;;;;;;141.10;55.83;;;;;;;;;;760626;185;918462;-62
2022/11/23 10:33:24;;;;;;;140.63;59.10;;;;;;;;;;766276;180;915756;-61
2022/11/23 10:35:50;;;;;;;133.23;60.80;;;;;;;;;;754857;179;919031;-61
2022/11/23 10:38:16;;;;;;;87.70;41.67;;;;;;;;;;762621;179;919171;-65
2022/11/23 10:40:42;;;;;;;108.43;39.90;;;;;;;;;;773785;180;855408;-62
2022/11/23 10:43:13;;;;;;;135.67;54.13;;;;;;;;;;773522;180;822271;-66
2022/11/23 10:45:39;;;;;;;120.43;55.30;;;;;;;;;;772166;179;919223;-64
2022/11/23 10:48:05;;;;;;;126.43;53.60;;;;;;;;;;774855;180;817311;-66
2022/11/23 10:50:33;;;;;;;114.83;43.93;;;;;;;;;;765285;183;747696;-66
2022/11/23 10:52:57;;;;;;;115.50;45.97;;;;;;;;;;766484;180;901804;-66
2022/11/23 10:55:23;;;;;;;81.67;33.53;;;;;;;;;;769506;180;865956;-65
2022/11/23 10:57:49;;;;;;;103.90;42.13;;;;;;;;;;777510;180;915278;-61
2022/11/23 11:00:16;;;;;;;123.30;60.88;;;;;;;;;;770203;180;915794;-65
2022/11/23 11:02:41;;;;;;;111.60;50.80;;;;;;;;;;769893;181;915276;-64
2022/11/23 11:05:14;;;;;;;116.93;48.92;;;;;;;;;;768038;180;915886;-66
2022/11/23 11:07:40;;;;;;;121.93;55.23;;;;;;;;;;769414;181;916264;-66
2022/11/23 11:10:06;;;;;;;124.63;51.73;;;;;;;;;;774650;180;919775;-65
2022/11/23 11:12:32;;;;;;;117.70;44.77;;;;;;;;;;773319;180;940324;-60
2022/11/23 11:15:12;;;;;;;120.07;48.37;;;;;;;;;;775661;180;919196;-65
2022/11/23 11:17:38;;;;;;;74.17;32.40;;;;;;;;;;767529;183;815116;-66
2022/11/23 11:20:22;;;;;;;92.50;41.33;;;;;;;;;;757610;181;914513;-62
2022/11/23 11:22:48;;;;;;;115.43;52.00;;;;;;;;;;766309;181;921510;-64
2022/11/23 11:25:20;;;;;;;125.70;55.40;;;;;;;;;;767558;179;820802;-65
2022/11/23 11:27:46;;;;;;;132.20;53.43;;;;;;;;;;773115;180;919369;-62
2022/11/23 11:30:12;;;;;;;106.40;45.20;;;;;;;;;;776849;180;914757;-62
2022/11/23 11:32:38;;;;;;;114.97;46.70;;;;;;;;;;766375;179;919459;-62
2022/11/23 11:35:09;;;;;;;130.00;56.30;;;;;;;;;;761538;183;919168;-65
2022/11/23 11:37:35;;;;;;;85.57;37.88;;;;;;;;;;764864;180;919165;-65
2022/11/23 11:40:16;;;;;;;131.63;56.37;;;;;;;;;;770024;180;919267;-66
2022/11/23 11:42:42;;;;;;;150.57;54.27;;;;;;;;;;743668;185;918543;-64
2022/11/23 11:45:08;;;;;;;129.47;58.27;;;;;;;;;;751825;187;916489;-62
2022/11/23 11:47:34;;;;;;;146.83;65.17;;;;;;;;;;747537;183;917018;-62
2022/11/23 11:50:00;;;;;;;125.63;51.43;;;;;;;;;;753421;184;914169;-64
2022/11/23 11:52:26;;;;;;;132.93;54.03;;;;;;;;;;739575;187;894448;-62
2022/11/23 11:54:52;;;;;;;138.00;58.33;;;;;;;;;;765583;183;920548;-62
2022/11/23 11:57:18;;;;;;;134.93;52.87;;;;;;;;;;763728;183;917450;-61
2022/11/23 11:59:44;;;;;;;152.87;61.00;;;;;;;;;;765060;183;918839;-64
2022/11/23 12:02:17;;;;;;;110.33;44.73;;;;;;;;;;754847;183;920160;-64
2022/11/23 12:04:43;;;;;;;120.60;54.80;;;;;;;;;;766110;183;913796;-62
2022/11/23 12:07:11;;;;;;;106.97;44.78;;;;;;;;;;767300;183;915585;-61
2022/11/23 12:09:38;;;;;;;144.03;60.87;;;;;;;;;;777537;179;916021;-64
2022/11/23 12:12:04;;;;;;;131.10;51.73;;;;;;;;;;756236;183;916289;-64
2022/11/23 12:14:30;;;;;;;140.80;54.23;;;;;;;;;;749404;185;914464;-64
2022/11/23 12:17:00;;;;;;;134.97;55.93;;;;;;;;;;744080;184;916312;-65
2022/11/23 12:19:31;;;;;;;130.03;53.97;;;;;;;;;;744399;186;916056;-62
2022/11/23 12:22:01;;;;;;;126.50;54.63;;;;;;;;;;763107;183;923232;-62
2022/11/23 12:24:33;;;;;;;131.73;55.42;;;;;;;;;;766406;181;917834;-62
2022/11/23 12:27:01;;;;;;;129.70;53.50;;;;;;;;;;762899;180;908447;-61
2022/11/23 12:29:46;;;;;;;93.07;39.03;;;;;;;;;;764002;181;915645;-64
2022/11/23 12:32:12;;;;;;;136.07;57.60;;;;;;;;;;767245;180;921457;-62
2022/11/23 12:34:40;;;;;;;140.20;54.33;;;;;;;;;;760778;183;919476;-65
2022/11/23 12:37:10;;;;;;;140.17;58.93;;;;;;;;;;775312;180;918878;-62
2022/11/23 12:39:42;;;;;;;168.63;69.57;;;;;;;;;;767803;183;919152;-61
2022/11/23 12:42:09;;;;;;;145.77;60.43;;;;;;;;;;752453;181;920041;-65
2022/11/23 12:44:50;;;;;;;164.43;68.57;;;;;;;;;;758230;181;918853;-62
2022/11/23 12:47:16;;;;;;;155.18;64.05;;;;;;;;;;759881;183;926286;-62
2022/11/23 12:49:42;;;;;;;184.57;79.67;;;;;;;;;;761033;183;919121;-64
2022/11/23 12:52:21;;;;;;;148.67;63.07;;;;;;;;;;767441;180;918717;-64
2022/11/23 12:54:46;;;;;;;134.60;59.27;;;;;;;;;;750976;183;932878;-61
2022/11/23 12:57:16;;;;;;;120.57;54.03;;;;;;;;;;743530;187;917006;-60
2022/11/23 12:59:56;;;;;;;147.80;61.30;;;;;;;;;;747772;184;921738;-63
2022/11/23 13:02:26;;;;;;;120.50;54.93;;;;;;;;;;748236;183;816610;-65
2022/11/23 13:04:53;;;;;;;126.33;52.47;;;;;;;;;;761256;183;926063;-62
2022/11/23 13:07:24;;;;;;;134.20;57.70;;;;;;;;;;762651;179;921179;-66
2022/11/23 13:09:53;;;;;;;80.67;35.63;;;;;;;;;;767759;179;917134;-62
2022/11/23 13:12:26;;;;;;;134.93;54.47;;;;;;;;;;771162;179;814424;-65
2022/11/23 13:14:57;;;;;;;113.73;45.17;;;;;;;;;;766744;181;916504;-65
2022/11/23 13:17:24;;;;;;;141.37;62.20;;;;;;;;;;767624;179;892709;-62
2022/11/23 13:19:56;;;;;;;135.03;57.63;;;;;;;;;;767943;180;816932;-61
2022/11/23 13:22:22;;;;;;;141.53;54.40;;;;;;;;;;761922;180;919213;-66
2022/11/23 13:24:54;;;;;;;103.57;46.53;;;;;;;;;;767822;181;918828;-62
2022/11/23 13:27:21;;;;;;;151.75;60.33;;;;;;;;;;768052;180;919769;-66
2022/11/23 13:29:59;;;;;;;150.80;71.60;;;;;;;;;;764851;181;920347;-62
2022/11/23 13:32:28;;;;;;;157.68;72.20;;;;;;;;;;764394;180;922868;-65
2022/11/23 13:34:54;;;;;;;105.68;49.08;;;;;;;;;;770396;181;919759;-62
2022/11/23 13:37:23;;;;;;;75.37;36.13;;;;;;;;;;775148;180;918244;-63
2022/11/23 13:39:47;;;;;;;127.47;56.80;;;;;;;;;;772165;179;919450;-61
2022/11/23 13:42:13;;;;;;;125.57;55.70;;;;;;;;;;766453;180;819573;-61
2022/11/23 13:44:39;;;;;;;122.10;56.63;;;;;;;;;;761150;183;920365;-64
2022/11/23 13:47:06;;;;;;;103.83;47.87;;;;;;;;;;764027;181;821450;-61
2022/11/23 13:49:32;;;;;;;115.07;53.67;;;;;;;;;;764278;180;918312;-65
2022/11/23 13:52:18;;;;;;;118.80;50.17;;;;;;;;;;772555;180;1029242;-64
2022/11/23 13:54:50;;;;;;;112.47;55.60;;;;;;;;;;768380;180;919029;-62